sensor_id;sensor_type;location;lat;lon;timestamp;temperature;humidity
21772;DHT22;11047;47.904;8.110;2024-01-10T00:02:22;-5.30;99.90
21772;DHT22;11047;47.904;8.110;2024-01-10T00:04:49;-5.30;99.90
21772;DHT22;11047;47.904;8.110;2024-01-10T00:07:16;-5.30;99.90
21772;DHT22;11047;47.904;8.110;2024-01-10T00:09:42;-5.30;99.90
21772;DHT22;11047;47.904;8.110;2024-01-10T00:12:12;-5.30;99.90
21772;DHT22;11047;47.904;8.110;2024-01-10T00:14:39;-5.30;99.90
21772;DHT22;11047;47.904;8.110;2024-01-10T00:17:05;-5.30;99.90
21772;DHT22;11047;47.904;8.110;2024-01-10T00:19:32;-5.30;99.90
21772;DHT22;11047;47.904;8.110;2024-01-10T00:21:59;-5.30;99.90
21772;DHT22;11047;47.904;8.110;2024-01-10T00:24:26;-5.30;99.90
21772;DHT22;11047;47.904;8.110;2024-01-10T00:26:52;-5.30;99.90
21772;DHT22;11047;47.904;8.110;2024-01-10T00:29:20;-5.30;99.90
21772;DHT22;11047;47.904;8.110;2024-01-10T00:31:47;-5.30;99.90
21772;DHT22;11047;47.904;8.110;2024-01-10T00:34:14;-5.20;99.90
21772;DHT22;11047;47.904;8.110;2024-01-10T00:36:40;-5.20;99.90
21772;DHT22;11047;47.904;8.110;2024-01-10T00:39:07;-5.10;99.90
21772;DHT22;11047;47.904;8.110;2024-01-10T00:41:34;-5.10;99.90
21772;DHT22;11047;47.904;8.110;2024-01-10T00:44:00;-5.10;99.90
21772;DHT22;11047;47.904;8.110;2024-01-10T00:46:28;-5.10;99.90
21772;DHT22;11047;47.904;8.110;2024-01-10T00:48:55;-5.10;99.90
21772;DHT22;11047;47.904;8.110;2024-01-10T00:51:22;-5.10;99.90
21772;DHT22;11047;47.904;8.110;2024-01-10T00:53:48;-5.20;99.90
21772;DHT22;11047;47.904;8.110;2024-01-10T00:56:15;-5.20;99.90
21772;DHT22;11047;47.904;8.110;2024-01-10T00:58:42;-5.20;99.90
21772;DHT22;11047;47.904;8.110;2024-01-10T01:01:09;-5.20;99.90
21772;DHT22;11047;47.904;8.110;2024-01-10T01:03:37;-5.20;99.90
21772;DHT22;11047;47.904;8.110;2024-01-10T01:06:03;-5.20;99.90
21772;DHT22;11047;47.904;8.110;2024-01-10T01:08:30;-5.20;99.90
21772;DHT22;11047;47.904;8.110;2024-01-10T01:10:57;-5.10;99.90
21772;DHT22;11047;47.904;8.110;2024-01-10T01:13:23;-5.20;99.90
21772;DHT22;11047;47.904;8.110;2024-01-10T01:15:50;-5.20;99.90
21772;DHT22;11047;47.904;8.110;2024-01-10T01:18:17;-5.10;99.90
21772;DHT22;11047;47.904;8.110;2024-01-10T01:20:46;-5.10;99.90
21772;DHT22;11047;47.904;8.110;2024-01-10T01:23:14;-5.10;99.90
21772;DHT22;11047;47.904;8.110;2024-01-10T01:25:40;-5.10;99.90
21772;DHT22;11047;47.904;8.110;2024-01-10T01:28:07;-5.10;99.90
21772;DHT22;11047;47.904;8.110;2024-01-10T01:30:34;-5.10;99.90
21772;DHT22;11047;47.904;8.110;2024-01-10T01:33:00;-5.10;99.90
21772;DHT22;11047;47.904;8.110;2024-01-10T01:35:30;-5.10;99.90
21772;DHT22;11047;47.904;8.110;2024-01-10T01:37:58;-5.20;99.90
21772;DHT22;11047;47.904;8.110;2024-01-10T01:40:24;-5.20;99.90
21772;DHT22;11047;47.904;8.110;2024-01-10T01:42:51;-5.20;99.90
21772;DHT22;11047;47.904;8.110;2024-01-10T01:45:19;-5.20;99.90
21772;DHT22;11047;47.904;8.110;2024-01-10T01:47:45;-5.20;99.90
21772;DHT22;11047;47.904;8.110;2024-01-10T01:50:12;-5.20;99.90
21772;DHT22;11047;47.904;8.110;2024-01-10T01:52:39;-5.10;99.90
21772;DHT22;11047;47.904;8.110;2024-01-10T01:55:07;-5.10;99.90
21772;DHT22;11047;47.904;8.110;2024-01-10T01:57:34;-5.20;99.90
21772;DHT22;11047;47.904;8.110;2024-01-10T02:00:01;-5.10;99.90
21772;DHT22;11047;47.904;8.110;2024-01-10T02:02:30;-5.10;99.90
21772;DHT22;11047;47.904;8.110;2024-01-10T02:04:56;-5.10;99.90
21772;DHT22;11047;47.904;8.110;2024-01-10T02:07:23;-5.10;99.90
21772;DHT22;11047;47.904;8.110;2024-01-10T02:09:50;-5.10;99.90
21772;DHT22;11047;47.904;8.110;2024-01-10T02:12:18;-5.10;99.90
21772;DHT22;11047;47.904;8.110;2024-01-10T02:14:45;-5.10;99.90
21772;DHT22;11047;47.904;8.110;2024-01-10T02:17:11;-5.10;99.90
21772;DHT22;11047;47.904;8.110;2024-01-10T02:19:39;-5.20;99.90
21772;DHT22;11047;47.904;8.110;2024-01-10T02:22:05;-5.10;99.90
21772;DHT22;11047;47.904;8.110;2024-01-10T02:24:32;-5.10;99.90
21772;DHT22;11047;47.904;8.110;2024-01-10T02:27:00;-5.20;99.90
21772;DHT22;11047;47.904;8.110;2024-01-10T02:29:27;-5.20;99.90
21772;DHT22;11047;47.904;8.110;2024-01-10T02:31:53;-5.10;99.90
21772;DHT22;11047;47.904;8.110;2024-01-10T02:34:21;-5.20;99.90
21772;DHT22;11047;47.904;8.110;2024-01-10T02:36:47;-5.20;99.90
21772;DHT22;11047;47.904;8.110;2024-01-10T02:39:14;-5.10;99.90
21772;DHT22;11047;47.904;8.110;2024-01-10T02:41:41;-5.10;99.90
21772;DHT22;11047;47.904;8.110;2024-01-10T02:44:09;-5.10;99.90
21772;DHT22;11047;47.904;8.110;2024-01-10T02:46:35;-5.10;99.90
21772;DHT22;11047;47.904;8.110;2024-01-10T02:49:02;-5.00;99.90
21772;DHT22;11047;47.904;8.110;2024-01-10T02:51:28;-5.00;99.90
21772;DHT22;11047;47.904;8.110;2024-01-10T02:53:57;-5.00;99.90
21772;DHT22;11047;47.904;8.110;2024-01-10T02:56:24;-4.90;99.90
21772;DHT22;11047;47.904;8.110;2024-01-10T02:58:50;-4.90;99.90
21772;DHT22;11047;47.904;8.110;2024-01-10T03:01:19;-4.80;99.90
21772;DHT22;11047;47.904;8.110;2024-01-10T03:03:45;-4.80;99.90
21772;DHT22;11047;47.904;8.110;2024-01-10T03:06:12;-4.90;99.90
21772;DHT22;11047;47.904;8.110;2024-01-10T03:08:38;-4.90;99.90
21772;DHT22;11047;47.904;8.110;2024-01-10T03:11:05;-4.90;99.90
21772;DHT22;11047;47.904;8.110;2024-01-10T03:13:32;-5.00;99.90
21772;DHT22;11047;47.904;8.110;2024-01-10T03:15:58;-5.00;99.90
21772;DHT22;11047;47.904;8.110;2024-01-10T03:18:27;-5.10;99.90
21772;DHT22;11047;47.904;8.110;2024-01-10T03:20:53;-5.20;99.90
21772;DHT22;11047;47.904;8.110;2024-01-10T03:23:21;-5.30;99.90
21772;DHT22;11047;47.904;8.110;2024-01-10T03:25:48;-5.40;99.90
21772;DHT22;11047;47.904;8.110;2024-01-10T03:28:15;-5.40;99.90
21772;DHT22;11047;47.904;8.110;2024-01-10T03:30:42;-5.50;99.90
21772;DHT22;11047;47.904;8.110;2024-01-10T03:33:08;-5.50;99.90
21772;DHT22;11047;47.904;8.110;2024-01-10T03:35:36;-5.60;99.90
21772;DHT22;11047;47.904;8.110;2024-01-10T03:38:03;-5.60;99.90
21772;DHT22;11047;47.904;8.110;2024-01-10T03:40:30;-5.60;99.90
21772;DHT22;11047;47.904;8.110;2024-01-10T03:42:57;-5.60;99.90
21772;DHT22;11047;47.904;8.110;2024-01-10T03:45:23;-5.50;99.90
21772;DHT22;11047;47.904;8.110;2024-01-10T03:47:50;-5.60;99.90
21772;DHT22;11047;47.904;8.110;2024-01-10T03:50:17;-5.60;99.90
21772;DHT22;11047;47.904;8.110;2024-01-10T03:52:45;-5.60;99.90
21772;DHT22;11047;47.904;8.110;2024-01-10T03:55:12;-5.60;99.90
21772;DHT22;11047;47.904;8.110;2024-01-10T03:57:40;-5.60;99.90
21772;DHT22;11047;47.904;8.110;2024-01-10T04:00:07;-5.60;99.90
21772;DHT22;11047;47.904;8.110;2024-01-10T04:02:36;-5.60;99.90
21772;DHT22;11047;47.904;8.110;2024-01-10T04:05:03;-5.60;99.90
21772;DHT22;11047;47.904;8.110;2024-01-10T04:07:31;-5.70;99.90
21772;DHT22;11047;47.904;8.110;2024-01-10T04:10:00;-5.70;99.90
21772;DHT22;11047;47.904;8.110;2024-01-10T04:12:26;-5.80;99.90
21772;DHT22;11047;47.904;8.110;2024-01-10T04:14:53;-5.80;99.90
21772;DHT22;11047;47.904;8.110;2024-01-10T04:17:20;-5.90;99.90
21772;DHT22;11047;47.904;8.110;2024-01-10T04:19:46;-5.90;99.90
21772;DHT22;11047;47.904;8.110;2024-01-10T04:22:13;-5.90;99.90
21772;DHT22;11047;47.904;8.110;2024-01-10T04:24:40;-6.00;99.90
21772;DHT22;11047;47.904;8.110;2024-01-10T04:27:08;-6.00;99.90
21772;DHT22;11047;47.904;8.110;2024-01-10T04:29:34;-6.00;99.90
21772;DHT22;11047;47.904;8.110;2024-01-10T04:32:01;-6.00;99.90
21772;DHT22;11047;47.904;8.110;2024-01-10T04:34:28;-6.10;99.90
21772;DHT22;11047;47.904;8.110;2024-01-10T04:36:55;-6.20;99.90
21772;DHT22;11047;47.904;8.110;2024-01-10T04:39:21;-6.20;99.90
21772;DHT22;11047;47.904;8.110;2024-01-10T04:41:48;-6.20;99.90
21772;DHT22;11047;47.904;8.110;2024-01-10T04:44:16;-6.20;99.90
21772;DHT22;11047;47.904;8.110;2024-01-10T04:46:43;-6.30;99.90
21772;DHT22;11047;47.904;8.110;2024-01-10T04:49:10;-6.30;99.90
21772;DHT22;11047;47.904;8.110;2024-01-10T04:51:37;-6.30;99.90
21772;DHT22;11047;47.904;8.110;2024-01-10T04:54:04;-6.30;99.90
21772;DHT22;11047;47.904;8.110;2024-01-10T04:56:30;-6.30;99.90
21772;DHT22;11047;47.904;8.110;2024-01-10T04:58:57;-6.30;99.90
21772;DHT22;11047;47.904;8.110;2024-01-10T05:01:25;-6.40;99.90
21772;DHT22;11047;47.904;8.110;2024-01-10T05:03:52;-6.40;99.90
21772;DHT22;11047;47.904;8.110;2024-01-10T05:06:19;-6.50;99.90
21772;DHT22;11047;47.904;8.110;2024-01-10T05:08:45;-6.50;99.90
21772;DHT22;11047;47.904;8.110;2024-01-10T05:11:12;-6.50;99.90
21772;DHT22;11047;47.904;8.110;2024-01-10T05:13:39;-6.50;99.90
21772;DHT22;11047;47.904;8.110;2024-01-10T05:16:06;-6.60;99.90
21772;DHT22;11047;47.904;8.110;2024-01-10T05:18:34;-6.60;99.90
21772;DHT22;11047;47.904;8.110;2024-01-10T05:21:01;-6.60;99.90
21772;DHT22;11047;47.904;8.110;2024-01-10T05:23:29;-6.50;99.90
21772;DHT22;11047;47.904;8.110;2024-01-10T05:25:55;-6.50;99.90
21772;DHT22;11047;47.904;8.110;2024-01-10T05:28:23;-6.50;99.90
21772;DHT22;11047;47.904;8.110;2024-01-10T05:30:50;-6.50;99.90
21772;DHT22;11047;47.904;8.110;2024-01-10T05:33:16;-6.50;99.90
21772;DHT22;11047;47.904;8.110;2024-01-10T05:35:44;-6.40;99.90
21772;DHT22;11047;47.904;8.110;2024-01-10T05:38:11;-6.40;99.90
21772;DHT22;11047;47.904;8.110;2024-01-10T05:40:38;-6.30;99.90
21772;DHT22;11047;47.904;8.110;2024-01-10T05:43:04;-6.20;99.90
21772;DHT22;11047;47.904;8.110;2024-01-10T05:45:32;-6.10;99.90
21772;DHT22;11047;47.904;8.110;2024-01-10T05:47:59;-6.10;99.90
21772;DHT22;11047;47.904;8.110;2024-01-10T05:50:26;-6.00;99.90
21772;DHT22;11047;47.904;8.110;2024-01-10T05:52:54;-6.00;99.90
21772;DHT22;11047;47.904;8.110;2024-01-10T05:55:20;-6.00;99.90
21772;DHT22;11047;47.904;8.110;2024-01-10T05:57:48;-5.90;99.90
21772;DHT22;11047;47.904;8.110;2024-01-10T06:00:15;-5.90;99.90
21772;DHT22;11047;47.904;8.110;2024-01-10T06:02:42;-5.90;99.90
21772;DHT22;11047;47.904;8.110;2024-01-10T06:05:09;-5.90;99.90
21772;DHT22;11047;47.904;8.110;2024-01-10T06:07:36;-6.00;99.90
21772;DHT22;11047;47.904;8.110;2024-01-10T06:10:05;-6.00;99.90
21772;DHT22;11047;47.904;8.110;2024-01-10T06:12:32;-6.10;99.90
21772;DHT22;11047;47.904;8.110;2024-01-10T06:14:58;-6.10;99.90
21772;DHT22;11047;47.904;8.110;2024-01-10T06:17:24;-6.20;99.90
21772;DHT22;11047;47.904;8.110;2024-01-10T06:19:51;-6.20;99.90
21772;DHT22;11047;47.904;8.110;2024-01-10T06:22:18;-6.20;99.90
21772;DHT22;11047;47.904;8.110;2024-01-10T06:24:50;-6.20;99.90
21772;DHT22;11047;47.904;8.110;2024-01-10T06:27:18;-6.30;99.90
21772;DHT22;11047;47.904;8.110;2024-01-10T06:29:45;-6.30;99.90
21772;DHT22;11047;47.904;8.110;2024-01-10T06:32:11;-6.40;99.90
21772;DHT22;11047;47.904;8.110;2024-01-10T06:34:39;-6.40;99.90
21772;DHT22;11047;47.904;8.110;2024-01-10T06:37:06;-6.50;99.90
21772;DHT22;11047;47.904;8.110;2024-01-10T06:39:33;-6.50;99.90
21772;DHT22;11047;47.904;8.110;2024-01-10T06:42:00;-6.60;99.90
21772;DHT22;11047;47.904;8.110;2024-01-10T06:44:30;-6.60;99.90
21772;DHT22;11047;47.904;8.110;2024-01-10T06:46:57;-6.60;99.90
21772;DHT22;11047;47.904;8.110;2024-01-10T06:49:23;-6.70;99.90
21772;DHT22;11047;47.904;8.110;2024-01-10T06:51:50;-6.70;99.90
21772;DHT22;11047;47.904;8.110;2024-01-10T06:54:17;-6.60;99.90
21772;DHT22;11047;47.904;8.110;2024-01-10T06:56:44;-6.70;99.90
21772;DHT22;11047;47.904;8.110;2024-01-10T06:59:11;-6.70;99.90
21772;DHT22;11047;47.904;8.110;2024-01-10T07:01:39;-6.80;99.90
21772;DHT22;11047;47.904;8.110;2024-01-10T07:04:06;-6.80;99.90
21772;DHT22;11047;47.904;8.110;2024-01-10T07:06:32;-6.80;99.90
21772;DHT22;11047;47.904;8.110;2024-01-10T07:08:59;-6.90;99.90
21772;DHT22;11047;47.904;8.110;2024-01-10T07:11:26;-6.80;99.90
21772;DHT22;11047;47.904;8.110;2024-01-10T07:13:54;-6.80;99.90
21772;DHT22;11047;47.904;8.110;2024-01-10T07:16:21;-6.80;99.90
21772;DHT22;11047;47.904;8.110;2024-01-10T07:18:49;-6.80;99.90
21772;DHT22;11047;47.904;8.110;2024-01-10T07:21:16;-6.80;99.90
21772;DHT22;11047;47.904;8.110;2024-01-10T07:23:43;-6.70;99.90
21772;DHT22;11047;47.904;8.110;2024-01-10T07:26:12;-6.80;99.90
21772;DHT22;11047;47.904;8.110;2024-01-10T07:28:39;-6.80;99.90
21772;DHT22;11047;47.904;8.110;2024-01-10T07:31:07;-6.90;99.90
21772;DHT22;11047;47.904;8.110;2024-01-10T07:33:33;-6.90;99.90
21772;DHT22;11047;47.904;8.110;2024-01-10T07:36:01;-6.90;99.90
21772;DHT22;11047;47.904;8.110;2024-01-10T07:38:28;-6.90;99.90
21772;DHT22;11047;47.904;8.110;2024-01-10T07:40:55;-6.80;99.90
21772;DHT22;11047;47.904;8.110;2024-01-10T07:43:22;-6.80;99.90
21772;DHT22;11047;47.904;8.110;2024-01-10T07:45:49;-6.80;99.90
21772;DHT22;11047;47.904;8.110;2024-01-10T07:48:15;-6.20;99.90
21772;DHT22;11047;47.904;8.110;2024-01-10T07:50:42;-6.70;99.90
21772;DHT22;11047;47.904;8.110;2024-01-10T07:53:11;-6.70;99.90
21772;DHT22;11047;47.904;8.110;2024-01-10T07:55:38;-6.60;99.90
21772;DHT22;11047;47.904;8.110;2024-01-10T07:58:05;-6.60;99.90
21772;DHT22;11047;47.904;8.110;2024-01-10T08:00:32;-6.60;99.90
21772;DHT22;11047;47.904;8.110;2024-01-10T08:02:59;-6.60;99.90
21772;DHT22;11047;47.904;8.110;2024-01-10T08:05:26;-6.50;99.90
21772;DHT22;11047;47.904;8.110;2024-01-10T08:07:52;-6.40;99.90
21772;DHT22;11047;47.904;8.110;2024-01-10T08:10:20;-6.40;99.90
21772;DHT22;11047;47.904;8.110;2024-01-10T08:12:47;-6.30;99.90
21772;DHT22;11047;47.904;8.110;2024-01-10T08:15:13;-6.30;99.90
21772;DHT22;11047;47.904;8.110;2024-01-10T08:17:40;-6.20;99.90
21772;DHT22;11047;47.904;8.110;2024-01-10T08:20:08;-6.20;99.90
21772;DHT22;11047;47.904;8.110;2024-01-10T08:22:36;-6.20;99.90
21772;DHT22;11047;47.904;8.110;2024-01-10T08:25:03;-6.10;99.90
21772;DHT22;11047;47.904;8.110;2024-01-10T08:27:31;-6.10;99.90
21772;DHT22;11047;47.904;8.110;2024-01-10T08:29:58;-6.00;99.90
21772;DHT22;11047;47.904;8.110;2024-01-10T08:32:25;-6.00;99.90
21772;DHT22;11047;47.904;8.110;2024-01-10T08:34:53;-5.90;99.90
21772;DHT22;11047;47.904;8.110;2024-01-10T08:37:20;-5.90;99.90
21772;DHT22;11047;47.904;8.110;2024-01-10T08:39:47;-5.80;99.90
21772;DHT22;11047;47.904;8.110;2024-01-10T08:42:15;-5.70;99.90
21772;DHT22;11047;47.904;8.110;2024-01-10T08:44:44;-5.50;99.90
21772;DHT22;11047;47.904;8.110;2024-01-10T08:47:10;-5.40;99.90
21772;DHT22;11047;47.904;8.110;2024-01-10T08:49:37;-5.30;99.90
21772;DHT22;11047;47.904;8.110;2024-01-10T08:52:04;-5.10;99.90
21772;DHT22;11047;47.904;8.110;2024-01-10T08:54:31;-5.00;99.90
21772;DHT22;11047;47.904;8.110;2024-01-10T08:56:57;-4.80;99.90
21772;DHT22;11047;47.904;8.110;2024-01-10T08:59:25;-4.80;99.90
21772;DHT22;11047;47.904;8.110;2024-01-10T09:01:54;-4.90;99.90
21772;DHT22;11047;47.904;8.110;2024-01-10T09:04:21;-4.80;99.90
21772;DHT22;11047;47.904;8.110;2024-01-10T09:06:48;-4.70;99.90
21772;DHT22;11047;47.904;8.110;2024-01-10T09:09:14;-4.50;99.90
21772;DHT22;11047;47.904;8.110;2024-01-10T09:11:46;-4.00;99.90
21772;DHT22;11047;47.904;8.110;2024-01-10T09:14:13;-4.00;99.90
21772;DHT22;11047;47.904;8.110;2024-01-10T09:16:40;-3.60;99.90
21772;DHT22;11047;47.904;8.110;2024-01-10T09:19:08;-3.20;99.90
21772;DHT22;11047;47.904;8.110;2024-01-10T09:21:35;-2.00;99.90
21772;DHT22;11047;47.904;8.110;2024-01-10T09:24:02;-2.40;99.90
21772;DHT22;11047;47.904;8.110;2024-01-10T09:26:30;-2.00;99.90
21772;DHT22;11047;47.904;8.110;2024-01-10T09:28:57;-1.40;99.90
21772;DHT22;11047;47.904;8.110;2024-01-10T09:31:24;-0.80;99.90
21772;DHT22;11047;47.904;8.110;2024-01-10T09:33:51;-0.40;99.90
21772;DHT22;11047;47.904;8.110;2024-01-10T09:36:19;0.00;99.90
21772;DHT22;11047;47.904;8.110;2024-01-10T09:38:45;0.30;99.90
21772;DHT22;11047;47.904;8.110;2024-01-10T09:41:12;0.40;99.90
21772;DHT22;11047;47.904;8.110;2024-01-10T09:43:39;0.60;99.90
21772;DHT22;11047;47.904;8.110;2024-01-10T09:46:06;0.80;99.90
21772;DHT22;11047;47.904;8.110;2024-01-10T09:48:34;1.10;99.90
21772;DHT22;11047;47.904;8.110;2024-01-10T09:51:00;1.40;99.90
21772;DHT22;11047;47.904;8.110;2024-01-10T09:53:28;1.60;99.90
21772;DHT22;11047;47.904;8.110;2024-01-10T09:55:57;1.40;99.90
21772;DHT22;11047;47.904;8.110;2024-01-10T09:58:26;1.40;99.90
21772;DHT22;11047;47.904;8.110;2024-01-10T10:00:53;1.50;99.90
21772;DHT22;11047;47.904;8.110;2024-01-10T10:03:20;1.70;99.90
21772;DHT22;11047;47.904;8.110;2024-01-10T10:05:46;0.90;99.90
21772;DHT22;11047;47.904;8.110;2024-01-10T10:08:13;0.50;99.90
21772;DHT22;11047;47.904;8.110;2024-01-10T10:10:46;0.20;99.90
21772;DHT22;11047;47.904;8.110;2024-01-10T10:13:23;-0.20;99.90
21772;DHT22;11047;47.904;8.110;2024-01-10T10:15:56;-0.30;99.90
21772;DHT22;11047;47.904;8.110;2024-01-10T10:18:23;-0.20;99.90
21772;DHT22;11047;47.904;8.110;2024-01-10T10:21:03;0.30;99.90
21772;DHT22;11047;47.904;8.110;2024-01-10T10:23:32;0.30;99.90
21772;DHT22;11047;47.904;8.110;2024-01-10T10:26:02;0.20;99.90
21772;DHT22;11047;47.904;8.110;2024-01-10T10:28:36;0.50;99.90
21772;DHT22;11047;47.904;8.110;2024-01-10T10:31:02;0.10;99.90
21772;DHT22;11047;47.904;8.110;2024-01-10T10:33:31;-0.10;99.90
21772;DHT22;11047;47.904;8.110;2024-01-10T10:35:58;0.20;99.90
21772;DHT22;11047;47.904;8.110;2024-01-10T10:38:25;0.40;99.90
21772;DHT22;11047;47.904;8.110;2024-01-10T10:40:53;0.30;99.90
21772;DHT22;11047;47.904;8.110;2024-01-10T10:43:22;0.30;99.90
21772;DHT22;11047;47.904;8.110;2024-01-10T10:45:49;0.20;99.90
21772;DHT22;11047;47.904;8.110;2024-01-10T10:48:17;0.10;99.90
21772;DHT22;11047;47.904;8.110;2024-01-10T10:50:50;-0.10;99.90
21772;DHT22;11047;47.904;8.110;2024-01-10T10:53:21;-0.10;99.90
21772;DHT22;11047;47.904;8.110;2024-01-10T10:55:48;0.20;99.90
21772;DHT22;11047;47.904;8.110;2024-01-10T10:58:16;0.30;99.90
21772;DHT22;11047;47.904;8.110;2024-01-10T11:00:44;0.40;99.90
21772;DHT22;11047;47.904;8.110;2024-01-10T11:03:12;0.30;99.90
21772;DHT22;11047;47.904;8.110;2024-01-10T11:05:40;0.40;99.90
21772;DHT22;11047;47.904;8.110;2024-01-10T11:08:07;0.50;99.90
21772;DHT22;11047;47.904;8.110;2024-01-10T11:10:35;0.60;99.90
21772;DHT22;11047;47.904;8.110;2024-01-10T11:13:05;0.60;99.90
21772;DHT22;11047;47.904;8.110;2024-01-10T11:15:42;0.70;99.90
21772;DHT22;11047;47.904;8.110;2024-01-10T11:18:14;0.70;99.90
21772;DHT22;11047;47.904;8.110;2024-01-10T11:20:50;0.90;99.90
21772;DHT22;11047;47.904;8.110;2024-01-10T11:23:26;1.10;99.90
21772;DHT22;11047;47.904;8.110;2024-01-10T11:25:58;1.30;99.90
21772;DHT22;11047;47.904;8.110;2024-01-10T11:28:25;1.40;99.90
21772;DHT22;11047;47.904;8.110;2024-01-10T11:30:52;1.40;99.90
21772;DHT22;11047;47.904;8.110;2024-01-10T11:33:24;1.50;99.90
21772;DHT22;11047;47.904;8.110;2024-01-10T11:36:07;1.80;99.90
21772;DHT22;11047;47.904;8.110;2024-01-10T11:38:38;1.90;99.90
21772;DHT22;11047;47.904;8.110;2024-01-10T11:41:05;1.90;99.90
21772;DHT22;11047;47.904;8.110;2024-01-10T11:43:31;2.00;99.90
21772;DHT22;11047;47.904;8.110;2024-01-10T11:45:58;2.00;99.90
21772;DHT22;11047;47.904;8.110;2024-01-10T11:48:27;2.10;99.90
21772;DHT22;11047;47.904;8.110;2024-01-10T11:50:54;2.00;99.90
21772;DHT22;11047;47.904;8.110;2024-01-10T11:53:42;2.10;99.90
21772;DHT22;11047;47.904;8.110;2024-01-10T11:56:12;2.20;99.90
21772;DHT22;11047;47.904;8.110;2024-01-10T12:01:25;2.20;99.90
21772;DHT22;11047;47.904;8.110;2024-01-10T12:03:54;2.50;99.90
21772;DHT22;11047;47.904;8.110;2024-01-10T12:06:22;2.50;99.90
21772;DHT22;11047;47.904;8.110;2024-01-10T12:08:50;2.50;99.90
21772;DHT22;11047;47.904;8.110;2024-01-10T12:11:17;2.50;99.90
21772;DHT22;11047;47.904;8.110;2024-01-10T12:13:44;2.70;99.90
21772;DHT22;11047;47.904;8.110;2024-01-10T12:16:11;2.80;99.90
21772;DHT22;11047;47.904;8.110;2024-01-10T12:18:38;2.80;99.90
21772;DHT22;11047;47.904;8.110;2024-01-10T12:21:06;2.90;99.90
21772;DHT22;11047;47.904;8.110;2024-01-10T12:23:36;3.10;99.90
21772;DHT22;11047;47.904;8.110;2024-01-10T12:26:04;3.20;99.90
21772;DHT22;11047;47.904;8.110;2024-01-10T12:28:32;3.20;99.90
21772;DHT22;11047;47.904;8.110;2024-01-10T12:30:59;3.00;99.90
21772;DHT22;11047;47.904;8.110;2024-01-10T12:33:26;3.00;99.90
21772;DHT22;11047;47.904;8.110;2024-01-10T12:36:02;2.80;99.90
21772;DHT22;11047;47.904;8.110;2024-01-10T12:38:31;2.80;99.90
21772;DHT22;11047;47.904;8.110;2024-01-10T12:40:59;2.80;99.90
21772;DHT22;11047;47.904;8.110;2024-01-10T12:43:26;2.70;99.90
21772;DHT22;11047;47.904;8.110;2024-01-10T12:46:02;2.60;99.90
21772;DHT22;11047;47.904;8.110;2024-01-10T12:48:28;2.60;99.90
21772;DHT22;11047;47.904;8.110;2024-01-10T12:50:55;2.60;99.90
21772;DHT22;11047;47.904;8.110;2024-01-10T12:53:22;2.50;99.90
21772;DHT22;11047;47.904;8.110;2024-01-10T12:55:50;2.30;99.90
21772;DHT22;11047;47.904;8.110;2024-01-10T12:58:17;2.30;99.90
21772;DHT22;11047;47.904;8.110;2024-01-10T13:00:45;2.20;99.90
21772;DHT22;11047;47.904;8.110;2024-01-10T13:03:11;2.30;99.90
21772;DHT22;11047;47.904;8.110;2024-01-10T13:05:38;2.60;99.90
21772;DHT22;11047;47.904;8.110;2024-01-10T13:08:05;2.60;99.90
21772;DHT22;11047;47.904;8.110;2024-01-10T13:10:33;2.60;99.90
21772;DHT22;11047;47.904;8.110;2024-01-10T13:13:01;2.70;99.90
21772;DHT22;11047;47.904;8.110;2024-01-10T13:15:28;2.70;99.90
21772;DHT22;11047;47.904;8.110;2024-01-10T13:17:55;2.60;99.90
21772;DHT22;11047;47.904;8.110;2024-01-10T13:20:22;2.60;99.90
21772;DHT22;11047;47.904;8.110;2024-01-10T13:22:49;2.50;99.90
21772;DHT22;11047;47.904;8.110;2024-01-10T13:25:16;2.60;99.90
21772;DHT22;11047;47.904;8.110;2024-01-10T13:27:43;2.50;99.90
21772;DHT22;11047;47.904;8.110;2024-01-10T13:30:12;2.50;99.90
21772;DHT22;11047;47.904;8.110;2024-01-10T13:32:39;2.40;99.90
21772;DHT22;11047;47.904;8.110;2024-01-10T13:35:06;2.40;99.90
21772;DHT22;11047;47.904;8.110;2024-01-10T13:37:33;2.50;99.90
21772;DHT22;11047;47.904;8.110;2024-01-10T13:39:59;2.40;99.90
21772;DHT22;11047;47.904;8.110;2024-01-10T13:42:26;2.40;99.90
21772;DHT22;11047;47.904;8.110;2024-01-10T13:44:53;2.40;99.90
21772;DHT22;11047;47.904;8.110;2024-01-10T13:47:21;2.50;99.90
21772;DHT22;11047;47.904;8.110;2024-01-10T13:49:48;2.40;99.90
21772;DHT22;11047;47.904;8.110;2024-01-10T13:52:14;2.60;99.90
21772;DHT22;11047;47.904;8.110;2024-01-10T13:54:41;2.50;99.90
21772;DHT22;11047;47.904;8.110;2024-01-10T13:57:09;2.40;99.90
21772;DHT22;11047;47.904;8.110;2024-01-10T13:59:35;2.30;99.90
21772;DHT22;11047;47.904;8.110;2024-01-10T14:02:01;2.20;99.90
21772;DHT22;11047;47.904;8.110;2024-01-10T14:04:29;2.10;99.90
21772;DHT22;11047;47.904;8.110;2024-01-10T14:06:55;1.90;99.90
21772;DHT22;11047;47.904;8.110;2024-01-10T14:09:22;1.90;99.90
21772;DHT22;11047;47.904;8.110;2024-01-10T14:11:49;1.80;99.90
21772;DHT22;11047;47.904;8.110;2024-01-10T14:14:16;1.80;99.90
21772;DHT22;11047;47.904;8.110;2024-01-10T14:16:43;1.80;99.90
21772;DHT22;11047;47.904;8.110;2024-01-10T14:19:10;1.70;99.90
21772;DHT22;11047;47.904;8.110;2024-01-10T14:21:50;1.60;99.90
21772;DHT22;11047;47.904;8.110;2024-01-10T14:24:17;1.60;99.90
21772;DHT22;11047;47.904;8.110;2024-01-10T14:26:43;1.50;99.90
21772;DHT22;11047;47.904;8.110;2024-01-10T14:29:10;1.40;99.90
21772;DHT22;11047;47.904;8.110;2024-01-10T14:31:37;1.40;99.90
21772;DHT22;11047;47.904;8.110;2024-01-10T14:34:05;1.30;99.90
21772;DHT22;11047;47.904;8.110;2024-01-10T14:36:31;1.30;99.90
21772;DHT22;11047;47.904;8.110;2024-01-10T14:39:00;1.30;99.90
21772;DHT22;11047;47.904;8.110;2024-01-10T14:41:26;1.30;99.90
21772;DHT22;11047;47.904;8.110;2024-01-10T14:43:53;1.20;99.90
21772;DHT22;11047;47.904;8.110;2024-01-10T14:46:22;1.20;99.90
21772;DHT22;11047;47.904;8.110;2024-01-10T14:48:48;1.20;99.90
21772;DHT22;11047;47.904;8.110;2024-01-10T14:51:15;1.30;99.90
21772;DHT22;11047;47.904;8.110;2024-01-10T14:53:42;1.20;99.90
21772;DHT22;11047;47.904;8.110;2024-01-10T14:56:10;1.10;99.90
21772;DHT22;11047;47.904;8.110;2024-01-10T14:58:36;1.10;99.90
21772;DHT22;11047;47.904;8.110;2024-01-10T15:01:06;1.00;99.90
21772;DHT22;11047;47.904;8.110;2024-01-10T15:03:33;1.00;99.90
21772;DHT22;11047;47.904;8.110;2024-01-10T15:06:00;1.20;99.90
21772;DHT22;11047;47.904;8.110;2024-01-10T15:08:27;1.10;99.90
21772;DHT22;11047;47.904;8.110;2024-01-10T15:10:53;1.00;99.90
21772;DHT22;11047;47.904;8.110;2024-01-10T15:13:22;0.90;99.90
21772;DHT22;11047;47.904;8.110;2024-01-10T15:15:49;0.80;99.90
21772;DHT22;11047;47.904;8.110;2024-01-10T15:18:15;0.60;99.90
21772;DHT22;11047;47.904;8.110;2024-01-10T15:20:45;0.50;99.90
21772;DHT22;11047;47.904;8.110;2024-01-10T15:23:11;0.50;99.90
21772;DHT22;11047;47.904;8.110;2024-01-10T15:25:38;0.40;99.90
21772;DHT22;11047;47.904;8.110;2024-01-10T15:28:05;0.30;99.90
21772;DHT22;11047;47.904;8.110;2024-01-10T15:30:35;0.40;99.90
21772;DHT22;11047;47.904;8.110;2024-01-10T15:33:02;0.30;99.90
21772;DHT22;11047;47.904;8.110;2024-01-10T15:35:29;0.30;99.90
21772;DHT22;11047;47.904;8.110;2024-01-10T15:37:56;0.40;99.90
21772;DHT22;11047;47.904;8.110;2024-01-10T15:40:22;0.70;99.90
21772;DHT22;11047;47.904;8.110;2024-01-10T15:42:49;0.20;99.90